Time;durP1;ratioP1;P1;durP2;ratioP2;P2;SDS_P1;SDS_P2;PMS_P1;PMS_P2;Temp;Humidity;BMP_temperature;BMP_pressure;BME280_temperature;BME280_humidity;BME280_pressure;Samples;Min_cycle;Max_cycle;Signal;HPM_P1;HPM_P2
2020/12/14 00:01:00;;;;;;;7.27;5.80;;;;;;;;;;5116428;28;20862;-67
2020/12/14 00:03:26;;;;;;;6.30;4.73;;;;;;;;;;5116755;28;20410;-67
2020/12/14 00:05:52;;;;;;;5.97;4.53;;;;;;;;;;5096557;28;20775;-67
2020/12/14 00:08:18;;;;;;;5.80;4.23;;;;;;;;;;5096078;28;20396;-67
2020/12/14 00:10:44;;;;;;;6.80;5.00;;;;;;;;;;5113065;28;20443;-67
2020/12/14 00:13:10;;;;;;;5.10;4.60;;;;;;;;;;5116669;28;20451;-67
2020/12/14 00:15:36;;;;;;;9.93;5.37;;;;;;;;;;5115521;28;20423;-67
2020/12/14 00:18:02;;;;;;;7.77;5.23;;;;;;;;;;5106332;28;20552;-67
2020/12/14 00:20:28;;;;;;;7.10;5.03;;;;;;;;;;5109482;28;20825;-67
2020/12/14 00:22:54;;;;;;;6.17;4.23;;;;;;;;;;5114147;28;20419;-68
2020/12/14 00:25:21;;;;;;;6.80;4.80;;;;;;;;;;5114267;28;20426;-67
2020/12/14 00:27:47;;;;;;;7.00;4.40;;;;;;;;;;5097867;28;20412;-68
2020/12/14 00:30:13;;;;;;;5.50;4.50;;;;;;;;;;5114901;28;20483;-67
2020/12/14 00:32:39;;;;;;;5.70;4.13;;;;;;;;;;5115933;28;20594;-67
2020/12/14 00:35:05;;;;;;;8.90;4.40;;;;;;;;;;5114681;28;20466;-67
2020/12/14 00:37:30;;;;;;;5.63;4.53;;;;;;;;;;5114557;28;20582;-67
2020/12/14 00:39:56;;;;;;;5.37;3.83;;;;;;;;;;5114582;28;20548;-67
2020/12/14 00:42:22;;;;;;;6.80;4.60;;;;;;;;;;5115756;28;20765;-67
2020/12/14 00:44:49;;;;;;;5.93;4.10;;;;;;;;;;5095142;28;20427;-67
2020/12/14 00:47:16;;;;;;;7.63;4.87;;;;;;;;;;5116036;28;20470;-67
2020/12/14 00:49:43;;;;;;;5.60;4.10;;;;;;;;;;5114605;28;20516;-67
2020/12/14 00:52:09;;;;;;;5.00;3.97;;;;;;;;;;5115692;28;20458;-67
2020/12/14 00:54:35;;;;;;;5.70;4.10;;;;;;;;;;5114535;28;20510;-68
2020/12/14 00:57:01;;;;;;;5.57;4.90;;;;;;;;;;5114402;28;20452;-67
2020/12/14 00:59:27;;;;;;;6.40;4.63;;;;;;;;;;5114375;28;20454;-67
2020/12/14 01:01:54;;;;;;;6.40;4.20;;;;;;;;;;5115679;28;20400;-67
2020/12/14 01:04:21;;;;;;;6.57;4.53;;;;;;;;;;5114441;28;20779;-67
2020/12/14 01:06:50;;;;;;;5.13;3.87;;;;;;;;;;5115491;28;20486;-67
2020/12/14 01:09:16;;;;;;;6.30;4.27;;;;;;;;;;5113858;28;20934;-68
2020/12/14 01:11:42;;;;;;;5.03;4.07;;;;;;;;;;5115382;28;20450;-67
2020/12/14 01:14:08;;;;;;;6.57;3.40;;;;;;;;;;5114057;28;20406;-68
2020/12/14 01:16:34;;;;;;;6.73;5.00;;;;;;;;;;5115030;28;20476;-67
2020/12/14 01:19:00;;;;;;;5.93;4.33;;;;;;;;;;5112794;28;20514;-70
2020/12/14 01:21:26;;;;;;;6.77;4.60;;;;;;;;;;5109495;28;20511;-67
2020/12/14 01:23:52;;;;;;;6.80;4.23;;;;;;;;;;5115143;28;20403;-67
2020/12/14 01:26:18;;;;;;;5.93;4.47;;;;;;;;;;5095291;28;20423;-67
2020/12/14 01:28:44;;;;;;;5.00;4.10;;;;;;;;;;5115011;28;20398;-67
2020/12/14 01:31:10;;;;;;;4.20;3.80;;;;;;;;;;5113853;28;20424;-67
2020/12/14 01:33:36;;;;;;;5.90;4.10;;;;;;;;;;5114655;28;20458;-67
2020/12/14 01:36:03;;;;;;;7.00;4.67;;;;;;;;;;5097700;28;20782;-67
2020/12/14 01:38:29;;;;;;;7.60;4.97;;;;;;;;;;5094305;28;20742;-67
2020/12/14 01:40:55;;;;;;;5.93;4.10;;;;;;;;;;5109116;28;20443;-68
2020/12/14 01:43:25;;;;;;;6.10;4.50;;;;;;;;;;5114472;28;20399;-67
2020/12/14 01:45:51;;;;;;;7.03;4.33;;;;;;;;;;5113292;28;20425;-67
2020/12/14 01:48:17;;;;;;;6.10;4.83;;;;;;;;;;5114276;28;20916;-67
2020/12/14 01:50:43;;;;;;;8.97;4.50;;;;;;;;;;5098508;28;20444;-67
2020/12/14 01:53:10;;;;;;;5.90;4.17;;;;;;;;;;5094067;28;20451;-67
2020/12/14 01:55:43;;;;;;;6.30;4.60;;;;;;;;;;5105070;28;20419;-67
2020/12/14 01:58:09;;;;;;;5.93;4.83;;;;;;;;;;5114463;28;20407;-67
2020/12/14 02:00:35;;;;;;;6.40;4.37;;;;;;;;;;5112991;28;20580;-67
2020/12/14 02:03:01;;;;;;;7.60;4.27;;;;;;;;;;5112744;28;20468;-67
2020/12/14 02:05:27;;;;;;;7.60;5.13;;;;;;;;;;5112962;28;20784;-67
2020/12/14 02:07:53;;;;;;;6.40;4.37;;;;;;;;;;5114059;28;20399;-68
2020/12/14 02:10:22;;;;;;;9.73;5.37;;;;;;;;;;5112761;28;20447;-67
2020/12/14 02:12:48;;;;;;;5.83;4.90;;;;;;;;;;5112320;28;20451;-67
2020/12/14 02:15:14;;;;;;;6.80;4.03;;;;;;;;;;5111173;28;20426;-68
2020/12/14 02:17:40;;;;;;;10.60;5.70;;;;;;;;;;5114023;28;20464;-68
2020/12/14 02:22:39;;;;;;;8.97;5.80;;;;;;;;;;5092567;28;20511;-65
2020/12/14 02:25:06;;;;;;;9.17;6.10;;;;;;;;;;5093243;28;20762;-66
2020/12/14 02:27:32;;;;;;;11.97;6.50;;;;;;;;;;5075410;28;20964;-66
2020/12/14 02:29:59;;;;;;;11.20;7.70;;;;;;;;;;5091085;28;20424;-67
2020/12/14 02:32:26;;;;;;;8.40;6.17;;;;;;;;;;5093223;28;20448;-66
2020/12/14 02:34:52;;;;;;;10.13;6.77;;;;;;;;;;5093184;28;20412;-68
2020/12/14 02:37:20;;;;;;;7.13;5.60;;;;;;;;;;5093348;28;20816;-66
2020/12/14 02:39:46;;;;;;;10.03;6.73;;;;;;;;;;5093329;28;20420;-66
2020/12/14 02:42:13;;;;;;;10.40;6.20;;;;;;;;;;5092215;28;20493;-65
2020/12/14 02:44:40;;;;;;;11.60;6.30;;;;;;;;;;5092731;28;20499;-65
2020/12/14 02:47:06;;;;;;;16.10;8.00;;;;;;;;;;5092513;28;20428;-65
2020/12/14 02:49:32;;;;;;;12.30;7.30;;;;;;;;;;5093140;28;20412;-65
2020/12/14 02:51:58;;;;;;;14.90;7.70;;;;;;;;;;5092197;28;20459;-66
2020/12/14 02:54:24;;;;;;;12.37;6.83;;;;;;;;;;5093252;28;20423;-66
2020/12/14 02:56:50;;;;;;;15.50;7.63;;;;;;;;;;5092141;28;20470;-66
2020/12/14 02:59:17;;;;;;;11.00;6.07;;;;;;;;;;5093104;28;20400;-66
2020/12/14 03:01:43;;;;;;;15.90;8.03;;;;;;;;;;5092137;28;20447;-66
2020/12/14 03:04:09;;;;;;;11.83;7.20;;;;;;;;;;5093359;28;20404;-66
2020/12/14 03:06:35;;;;;;;13.70;7.57;;;;;;;;;;5092143;28;20457;-66
2020/12/14 03:09:01;;;;;;;14.30;7.83;;;;;;;;;;5074255;28;20788;-66
2020/12/14 03:11:28;;;;;;;13.97;7.27;;;;;;;;;;5091800;28;20966;-66
2020/12/14 03:13:54;;;;;;;18.00;9.03;;;;;;;;;;5093391;28;20400;-66
2020/12/14 03:16:20;;;;;;;14.00;7.10;;;;;;;;;;5074466;28;20951;-66
2020/12/14 03:18:46;;;;;;;20.90;8.00;;;;;;;;;;5092213;28;20854;-66
2020/12/14 03:21:12;;;;;;;19.50;9.50;;;;;;;;;;5091935;28;21024;-66
2020/12/14 03:23:38;;;;;;;11.30;7.20;;;;;;;;;;5090368;28;20526;-66
2020/12/14 03:26:04;;;;;;;15.63;7.67;;;;;;;;;;5081377;28;20455;-66
2020/12/14 03:28:30;;;;;;;21.50;9.73;;;;;;;;;;5093026;28;20408;-66
2020/12/14 03:30:56;;;;;;;18.10;8.80;;;;;;;;;;5091783;28;20505;-66
2020/12/14 03:33:22;;;;;;;18.70;8.90;;;;;;;;;;5092624;28;20888;-66
2020/12/14 03:35:48;;;;;;;18.80;9.20;;;;;;;;;;5091934;28;20452;-66
2020/12/14 03:38:18;;;;;;;17.73;8.63;;;;;;;;;;5092639;28;20431;-65
2020/12/14 03:40:44;;;;;;;10.90;6.87;;;;;;;;;;5092462;28;20788;-65
2020/12/14 03:43:10;;;;;;;10.20;6.97;;;;;;;;;;5092997;28;20769;-66
2020/12/14 03:45:39;;;;;;;12.30;8.43;;;;;;;;;;5091842;28;20460;-65
2020/12/14 03:48:05;;;;;;;14.43;7.93;;;;;;;;;;5092746;28;20881;-65
2020/12/14 03:50:31;;;;;;;14.03;6.97;;;;;;;;;;5092229;28;20412;-66
2020/12/14 03:52:57;;;;;;;13.97;7.83;;;;;;;;;;5092700;28;20447;-65
2020/12/14 03:55:23;;;;;;;12.17;7.20;;;;;;;;;;5091721;28;21056;-65
2020/12/14 03:57:49;;;;;;;9.70;6.37;;;;;;;;;;5092693;28;20397;-65
2020/12/14 04:00:16;;;;;;;10.10;6.70;;;;;;;;;;5092317;28;20393;-64
2020/12/14 04:02:42;;;;;;;9.00;6.23;;;;;;;;;;5092719;28;20510;-65
2020/12/14 04:05:08;;;;;;;13.60;7.10;;;;;;;;;;5089021;28;20442;-65
2020/12/14 04:07:34;;;;;;;11.07;7.20;;;;;;;;;;5092365;28;20903;-65
2020/12/14 04:10:00;;;;;;;9.13;6.73;;;;;;;;;;5090757;28;20519;-65
2020/12/14 04:12:26;;;;;;;10.23;6.70;;;;;;;;;;5092496;28;20812;-65
2020/12/14 04:14:52;;;;;;;9.27;5.67;;;;;;;;;;5091421;28;20472;-65
2020/12/14 04:17:18;;;;;;;9.90;6.77;;;;;;;;;;5093159;28;20466;-66
2020/12/14 04:19:44;;;;;;;8.77;5.90;;;;;;;;;;5093527;28;20424;-65
2020/12/14 04:22:10;;;;;;;10.30;7.17;;;;;;;;;;5095768;28;20532;-66
2020/12/14 04:24:36;;;;;;;7.20;5.13;;;;;;;;;;5090797;28;20439;-65
2020/12/14 04:27:06;;;;;;;7.93;5.57;;;;;;;;;;5095681;28;20432;-65
2020/12/14 04:29:32;;;;;;;8.93;6.03;;;;;;;;;;5095380;28;20467;-65
2020/12/14 04:31:58;;;;;;;8.97;5.53;;;;;;;;;;5095566;28;20483;-67
2020/12/14 04:34:23;;;;;;;12.60;5.57;;;;;;;;;;5093779;28;20983;-65
2020/12/14 04:36:50;;;;;;;7.27;4.60;;;;;;;;;;5095692;28;20396;-67
2020/12/14 04:39:17;;;;;;;9.60;5.60;;;;;;;;;;5094859;28;20714;-65
2020/12/14 04:41:43;;;;;;;8.87;5.57;;;;;;;;;;5095805;28;20757;-65
2020/12/14 04:44:09;;;;;;;8.87;5.37;;;;;;;;;;5095031;28;20427;-64
2020/12/14 04:46:35;;;;;;;7.67;5.57;;;;;;;;;;5095377;28;20964;-65
2020/12/14 04:49:02;;;;;;;8.63;5.77;;;;;;;;;;5094798;28;20437;-65
2020/12/14 04:51:28;;;;;;;10.00;6.27;;;;;;;;;;5095277;28;20431;-65
2020/12/14 04:53:55;;;;;;;6.80;4.83;;;;;;;;;;5094402;28;20952;-65
2020/12/14 04:56:26;;;;;;;8.30;5.13;;;;;;;;;;5095325;28;20419;-65
2020/12/14 04:58:53;;;;;;;10.93;5.37;;;;;;;;;;5093333;28;20845;-65
2020/12/14 05:01:19;;;;;;;7.57;5.73;;;;;;;;;;5095037;28;20784;-65
2020/12/14 05:03:45;;;;;;;7.77;5.53;;;;;;;;;;5094081;28;20429;-65
2020/12/14 05:06:11;;;;;;;9.37;5.57;;;;;;;;;;5095082;28;20770;-65
2020/12/14 05:08:37;;;;;;;6.70;4.87;;;;;;;;;;5094795;28;20450;-65
2020/12/14 05:11:03;;;;;;;7.13;5.47;;;;;;;;;;5095443;28;20928;-65
2020/12/14 05:13:29;;;;;;;9.63;5.40;;;;;;;;;;5094338;28;20479;-65
2020/12/14 05:15:55;;;;;;;7.63;5.87;;;;;;;;;;5095073;28;20412;-65
2020/12/14 05:18:26;;;;;;;7.37;5.27;;;;;;;;;;5094994;28;20412;-65
2020/12/14 05:21:04;;;;;;;8.50;5.63;;;;;;;;;;5093991;28;20479;-65
2020/12/14 05:23:31;;;;;;;9.00;6.80;;;;;;;;;;5094146;28;20393;-64
2020/12/14 05:26:07;;;;;;;8.70;5.77;;;;;;;;;;5092777;28;20756;-65
2020/12/14 05:28:34;;;;;;;7.97;5.47;;;;;;;;;;5092889;28;20419;-64
2020/12/14 05:31:00;;;;;;;7.30;4.93;;;;;;;;;;5093132;28;20450;-65
2020/12/14 05:33:27;;;;;;;7.27;4.67;;;;;;;;;;5094451;28;20444;-65
2020/12/14 05:35:53;;;;;;;9.30;6.30;;;;;;;;;;5093485;28;20485;-65
2020/12/14 05:38:22;;;;;;;11.10;5.80;;;;;;;;;;5093425;28;20435;-65
2020/12/14 05:40:53;;;;;;;9.43;5.47;;;;;;;;;;5093274;28;20458;-65
2020/12/14 05:43:20;;;;;;;6.50;4.90;;;;;;;;;;5091956;28;20455;-65
2020/12/14 05:45:47;;;;;;;7.40;5.50;;;;;;;;;;5094382;28;20408;-65
2020/12/14 05:48:23;;;;;;;8.20;5.30;;;;;;;;;;5093412;28;20424;-65
2020/12/14 05:50:50;;;;;;;9.07;5.90;;;;;;;;;;5094073;28;20455;-65
2020/12/14 05:53:19;;;;;;;9.13;5.30;;;;;;;;;;5093331;28;20470;-65
2020/12/14 05:55:46;;;;;;;10.67;5.87;;;;;;;;;;5094021;28;20401;-66
2020/12/14 05:58:14;;;;;;;8.17;5.90;;;;;;;;;;5093865;28;20463;-65
2020/12/14 06:00:43;;;;;;;7.20;5.00;;;;;;;;;;5094302;28;20786;-65
2020/12/14 06:03:13;;;;;;;6.50;5.67;;;;;;;;;;5093056;28;20443;-65
2020/12/14 06:05:39;;;;;;;8.43;6.20;;;;;;;;;;5094112;28;20411;-65
2020/12/14 06:08:25;;;;;;;7.10;5.20;;;;;;;;;;5092821;28;20439;-65
2020/12/14 06:10:51;;;;;;;7.87;6.40;;;;;;;;;;5051770;28;20852;-66
2020/12/14 06:13:29;;;;;;;6.80;5.33;;;;;;;;;;5093405;28;20467;-65
2020/12/14 06:15:57;;;;;;;10.50;6.47;;;;;;;;;;5093997;28;20385;-65
2020/12/14 06:18:25;;;;;;;9.17;5.27;;;;;;;;;;5092671;28;21013;-65
2020/12/14 06:20:51;;;;;;;7.63;5.07;;;;;;;;;;5093525;28;20451;-65
2020/12/14 06:23:17;;;;;;;5.50;4.33;;;;;;;;;;5092760;28;20511;-66
2020/12/14 06:25:43;;;;;;;13.13;6.50;;;;;;;;;;5094047;28;20458;-65
2020/12/14 06:28:28;;;;;;;10.43;5.63;;;;;;;;;;5089290;28;20431;-65
2020/12/14 06:30:55;;;;;;;7.97;5.13;;;;;;;;;;5093454;28;20408;-65
2020/12/14 06:33:36;;;;;;;7.87;5.00;;;;;;;;;;5093027;28;20463;-65
2020/12/14 06:36:15;;;;;;;6.73;4.43;;;;;;;;;;5092784;28;20544;-65
2020/12/14 06:38:41;;;;;;;7.80;4.60;;;;;;;;;;5093116;28;20423;-65
2020/12/14 06:41:17;;;;;;;6.90;4.93;;;;;;;;;;5093263;28;20924;-65
2020/12/14 06:43:44;;;;;;;4.50;3.90;;;;;;;;;;5091148;28;20434;-65
2020/12/14 06:46:11;;;;;;;5.93;4.50;;;;;;;;;;5092445;28;20762;-65
2020/12/14 06:48:40;;;;;;;7.80;4.43;;;;;;;;;;5091769;28;20431;-65
2020/12/14 06:51:08;;;;;;;7.00;5.50;;;;;;;;;;5093097;28;20930;-65
2020/12/14 06:53:39;;;;;;;6.80;4.47;;;;;;;;;;5091849;28;20455;-65
2020/12/14 06:56:06;;;;;;;5.40;4.17;;;;;;;;;;5093092;28;20426;-65
2020/12/14 06:58:36;;;;;;;6.93;4.83;;;;;;;;;;5092002;28;20424;-66
2020/12/14 07:01:06;;;;;;;8.50;5.07;;;;;;;;;;5093005;28;20989;-65
2020/12/14 07:03:35;;;;;;;9.40;4.90;;;;;;;;;;5091948;28;20432;-65
2020/12/14 07:06:02;;;;;;;7.27;4.97;;;;;;;;;;5092804;28;20465;-67
2020/12/14 07:08:30;;;;;;;11.87;6.63;;;;;;;;;;5073893;28;20436;-67
2020/12/14 07:11:15;;;;;;;8.97;5.07;;;;;;;;;;5092900;28;20423;-66
2020/12/14 07:13:41;;;;;;;7.50;6.33;;;;;;;;;;5079339;28;20479;-67
2020/12/14 07:16:08;;;;;;;9.10;5.43;;;;;;;;;;5093028;28;20815;-67
2020/12/14 07:18:34;;;;;;;9.20;6.13;;;;;;;;;;5090029;28;20467;-66
2020/12/14 07:21:06;;;;;;;7.23;5.60;;;;;;;;;;5084165;28;20518;-66
2020/12/14 07:23:33;;;;;;;9.23;6.10;;;;;;;;;;5089237;28;20432;-66
2020/12/14 07:26:00;;;;;;;7.37;4.30;;;;;;;;;;5092262;28;20416;-66
2020/12/14 07:28:39;;;;;;;8.53;6.10;;;;;;;;;;5087437;28;20431;-67
2020/12/14 07:31:09;;;;;;;6.60;4.77;;;;;;;;;;5085737;28;20444;-67
2020/12/14 07:33:36;;;;;;;10.60;6.20;;;;;;;;;;5090367;28;20512;-66
2020/12/14 07:36:07;;;;;;;8.53;5.63;;;;;;;;;;5090188;28;20757;-67
2020/12/14 07:38:33;;;;;;;8.07;5.77;;;;;;;;;;5069231;28;20421;-67
2020/12/14 07:41:05;;;;;;;9.43;5.80;;;;;;;;;;5075086;28;20436;-68
2020/12/14 07:43:31;;;;;;;12.23;6.70;;;;;;;;;;5090964;28;20415;-67
2020/12/14 07:45:57;;;;;;;10.40;7.50;;;;;;;;;;5092440;28;20502;-67
2020/12/14 07:48:24;;;;;;;8.77;5.60;;;;;;;;;;5071720;28;20520;-66
2020/12/14 07:50:49;;;;;;;8.30;4.90;;;;;;;;;;5090808;28;20463;-66
2020/12/14 07:53:16;;;;;;;12.60;6.47;;;;;;;;;;5091190;28;20452;-67
2020/12/14 07:55:42;;;;;;;7.60;5.33;;;;;;;;;;5095061;28;20415;-65
2020/12/14 07:58:08;;;;;;;6.10;4.03;;;;;;;;;;5095805;28;20892;-66
2020/12/14 08:00:34;;;;;;;7.23;4.30;;;;;;;;;;5088283;28;20430;-67
2020/12/14 08:03:05;;;;;;;5.97;4.40;;;;;;;;;;5079035;28;20803;-68
2020/12/14 08:05:31;;;;;;;5.30;3.90;;;;;;;;;;5093608;28;20411;-68
2020/12/14 08:08:02;;;;;;;7.90;4.80;;;;;;;;;;5092981;28;20562;-67
2020/12/14 08:10:32;;;;;;;9.53;4.80;;;;;;;;;;5094777;28;20435;-67
2020/12/14 08:13:09;;;;;;;11.20;5.50;;;;;;;;;;5093549;28;20451;-66
2020/12/14 08:15:36;;;;;;;5.43;4.13;;;;;;;;;;5095344;28;20392;-67
2020/12/14 08:18:05;;;;;;;6.90;4.10;;;;;;;;;;5074911;28;20424;-67
2020/12/14 08:20:32;;;;;;;5.90;4.13;;;;;;;;;;5092731;28;20444;-68
2020/12/14 08:22:59;;;;;;;4.90;3.97;;;;;;;;;;5093427;28;20427;-69
2020/12/14 08:25:26;;;;;;;7.80;4.77;;;;;;;;;;5092769;28;20451;-68
2020/12/14 08:27:56;;;;;;;6.70;4.53;;;;;;;;;;5092849;28;20941;-68
2020/12/14 08:30:23;;;;;;;6.50;4.90;;;;;;;;;;5086367;28;20436;-71
2020/12/14 08:33:07;;;;;;;7.27;4.47;;;;;;;;;;5090932;28;20447;-70
2020/12/14 08:35:33;;;;;;;7.60;4.57;;;;;;;;;;5091888;28;20428;-69
2020/12/14 08:38:04;;;;;;;9.80;4.43;;;;;;;;;;5092320;28;20821;-71
2020/12/14 08:40:30;;;;;;;9.13;4.60;;;;;;;;;;5092096;28;20523;-73
2020/12/14 08:43:12;;;;;;;8.23;4.97;;;;;;;;;;5093342;28;20976;-68
2020/12/14 08:45:39;;;;;;;12.40;5.50;;;;;;;;;;5092222;28;20898;-69
2020/12/14 08:48:05;;;;;;;8.43;4.63;;;;;;;;;;5093722;28;20908;-69
2020/12/14 08:50:32;;;;;;;7.40;4.70;;;;;;;;;;5089948;28;20561;-69
2020/12/14 08:52:59;;;;;;;9.03;4.73;;;;;;;;;;5077232;28;20495;-69
2020/12/14 08:55:34;;;;;;;6.83;4.67;;;;;;;;;;5090929;28;20466;-71
2020/12/14 08:58:00;;;;;;;6.67;5.07;;;;;;;;;;5092369;28;20411;-66
2020/12/14 09:00:26;;;;;;;8.83;5.53;;;;;;;;;;5092127;28;20540;-68
2020/12/14 09:02:59;;;;;;;10.80;4.50;;;;;;;;;;5081308;28;20413;-72
2020/12/14 09:05:25;;;;;;;7.70;4.10;;;;;;;;;;5090626;28;20428;-72
2020/12/14 09:07:51;;;;;;;7.47;5.10;;;;;;;;;;5093853;28;20571;-72
2020/12/14 09:10:26;;;;;;;8.27;5.00;;;;;;;;;;5092492;28;20434;-69
2020/12/14 09:13:02;;;;;;;5.70;4.43;;;;;;;;;;5086845;28;20590;-70
2020/12/14 09:15:28;;;;;;;9.60;5.30;;;;;;;;;;5092347;28;20826;-69
2020/12/14 09:17:59;;;;;;;6.07;4.67;;;;;;;;;;5092979;28;20770;-70
2020/12/14 09:20:25;;;;;;;11.30;5.00;;;;;;;;;;5093249;28;20764;-71
2020/12/14 09:22:51;;;;;;;11.23;4.13;;;;;;;;;;5091956;28;20900;-72
2020/12/14 09:25:17;;;;;;;9.00;5.50;;;;;;;;;;5089337;28;20461;-72
2020/12/14 09:27:43;;;;;;;5.57;4.17;;;;;;;;;;5090009;28;20416;-71
2020/12/14 09:30:10;;;;;;;6.23;4.50;;;;;;;;;;5090206;28;20439;-73
2020/12/14 09:32:36;;;;;;;6.87;3.70;;;;;;;;;;5090309;28;20509;-72
2020/12/14 09:35:02;;;;;;;4.13;3.40;;;;;;;;;;5092954;28;20432;-73
2020/12/14 09:37:28;;;;;;;8.27;4.33;;;;;;;;;;5073292;28;20936;-71
2020/12/14 09:39:54;;;;;;;5.50;4.00;;;;;;;;;;5092526;28;20467;-73
2020/12/14 09:42:20;;;;;;;6.10;4.23;;;;;;;;;;5093015;28;20497;-73
2020/12/14 09:44:46;;;;;;;3.83;3.13;;;;;;;;;;5091367;28;20420;-73
2020/12/14 09:47:12;;;;;;;5.97;3.80;;;;;;;;;;5084185;28;20417;-72
2020/12/14 09:49:39;;;;;;;6.03;3.90;;;;;;;;;;5080774;28;20775;-72
2020/12/14 09:52:05;;;;;;;6.53;4.00;;;;;;;;;;5086742;28;20466;-71
2020/12/14 09:54:31;;;;;;;5.65;3.70;;;;;;;;;;5089511;28;20424;-71
2020/12/14 09:56:57;;;;;;;6.40;4.27;;;;;;;;;;5092609;28;20162;-71
2020/12/14 09:59:24;;;;;;;5.47;3.70;;;;;;;;;;5090609;28;20456;-68
2020/12/14 10:01:50;;;;;;;5.63;3.43;;;;;;;;;;5092279;28;20497;-68
2020/12/14 10:04:16;;;;;;;4.73;2.93;;;;;;;;;;5084191;28;20573;-75
2020/12/14 10:06:45;;;;;;;4.20;2.80;;;;;;;;;;5091798;28;20832;-73
2020/12/14 10:09:11;;;;;;;3.77;2.73;;;;;;;;;;5090594;28;20606;-74
2020/12/14 10:11:37;;;;;;;2.60;2.20;;;;;;;;;;5093077;28;20973;-80
2020/12/14 10:14:04;;;;;;;4.27;2.83;;;;;;;;;;5087017;28;20424;-76
2020/12/14 10:16:30;;;;;;;3.40;2.77;;;;;;;;;;5091331;28;20787;-76
2020/12/14 10:18:56;;;;;;;4.60;2.93;;;;;;;;;;5092012;28;20428;-75
2020/12/14 10:21:22;;;;;;;4.33;2.80;;;;;;;;;;5088714;28;20971;-75
2020/12/14 10:23:48;;;;;;;6.50;3.20;;;;;;;;;;5090810;28;20431;-70
2020/12/14 10:26:15;;;;;;;4.47;3.13;;;;;;;;;;5091286;28;20492;-75
2020/12/14 10:28:41;;;;;;;9.73;3.30;;;;;;;;;;5090345;28;20459;-77
2020/12/14 10:31:07;;;;;;;6.00;3.07;;;;;;;;;;5086697;28;20608;-73
2020/12/14 10:33:33;;;;;;;6.43;2.70;;;;;;;;;;5087988;28;20489;-74
2020/12/14 10:36:06;;;;;;;5.47;2.87;;;;;;;;;;5091255;28;20425;-73
2020/12/14 10:38:32;;;;;;;4.60;2.60;;;;;;;;;;5088577;28;20420;-71
2020/12/14 10:40:58;;;;;;;6.70;3.00;;;;;;;;;;5086544;28;20657;-69
2020/12/14 10:43:24;;;;;;;5.13;3.37;;;;;;;;;;5083008;28;20436;-69
2020/12/14 10:45:50;;;;;;;5.00;2.67;;;;;;;;;;5088076;28;20967;-71
2020/12/14 10:48:16;;;;;;;4.77;2.60;;;;;;;;;;5090763;28;20424;-72
2020/12/14 10:50:42;;;;;;;4.40;2.57;;;;;;;;;;5091762;28;20840;-75
2020/12/14 10:53:08;;;;;;;4.33;2.40;;;;;;;;;;5072852;28;20436;-76
2020/12/14 10:55:34;;;;;;;3.37;2.50;;;;;;;;;;5092940;28;20916;-76
2020/12/14 10:58:00;;;;;;;3.40;2.10;;;;;;;;;;5092645;28;20423;-73
2020/12/14 11:00:26;;;;;;;4.93;3.00;;;;;;;;;;5090504;28;20977;-74
2020/12/14 11:02:56;;;;;;;5.20;2.60;;;;;;;;;;5090718;28;20420;-70
2020/12/14 11:05:22;;;;;;;5.37;2.80;;;;;;;;;;5091811;28;20451;-71
2020/12/14 11:07:49;;;;;;;5.43;3.30;;;;;;;;;;5090314;28;20915;-70
2020/12/14 11:10:15;;;;;;;5.53;3.90;;;;;;;;;;5090656;28;20420;-73
2020/12/14 11:12:41;;;;;;;4.87;2.70;;;;;;;;;;5086028;28;20455;-73
2020/12/14 11:15:07;;;;;;;3.88;2.35;;;;;;;;;;5082313;28;20420;-71
2020/12/14 11:17:34;;;;;;;6.30;2.90;;;;;;;;;;5092989;28;20523;-76
2020/12/14 11:20:00;;;;;;;5.43;2.50;;;;;;;;;;5092239;28;20420;-75
2020/12/14 11:22:26;;;;;;;7.70;2.50;;;;;;;;;;5092731;28;20461;-74
2020/12/14 11:24:52;;;;;;;4.17;3.00;;;;;;;;;;5092160;28;20416;-74
2020/12/14 11:27:18;;;;;;;4.53;3.43;;;;;;;;;;5090641;28;20442;-76
2020/12/14 11:29:44;;;;;;;3.63;2.93;;;;;;;;;;5094877;28;20438;-76
2020/12/14 11:32:10;;;;;;;4.30;2.70;;;;;;;;;;5092347;28;20922;-75
2020/12/14 11:34:36;;;;;;;3.03;2.73;;;;;;;;;;5095723;28;20507;-72
2020/12/14 11:37:02;;;;;;;5.73;2.77;;;;;;;;;;5096937;28;20408;-78
2020/12/14 11:39:28;;;;;;;2.90;2.33;;;;;;;;;;5096301;28;20408;-74
2020/12/14 11:41:54;;;;;;;5.27;3.20;;;;;;;;;;5094305;28;20460;-75
2020/12/14 11:44:21;;;;;;;6.33;3.40;;;;;;;;;;5077726;28;20424;-76
2020/12/14 11:46:51;;;;;;;4.60;2.90;;;;;;;;;;5078220;28;20414;-76
2020/12/14 11:49:17;;;;;;;3.90;2.63;;;;;;;;;;5097087;28;20419;-76
2020/12/14 11:51:43;;;;;;;3.73;2.40;;;;;;;;;;5078381;28;20432;-76
2020/12/14 11:54:09;;;;;;;3.90;3.10;;;;;;;;;;5095640;28;20428;-70
2020/12/14 11:56:35;;;;;;;3.70;2.90;;;;;;;;;;5095867;28;20446;-74
2020/12/14 11:59:01;;;;;;;4.35;2.75;;;;;;;;;;5094098;28;20417;-71
2020/12/14 12:01:27;;;;;;;7.93;2.90;;;;;;;;;;5095379;28;20220;-73
2020/12/14 12:03:53;;;;;;;5.10;2.90;;;;;;;;;;5093379;28;20472;-69
2020/12/14 12:06:26;;;;;;;4.87;3.37;;;;;;;;;;5089104;28;20420;-71
2020/12/14 12:08:52;;;;;;;6.30;3.63;;;;;;;;;;5094063;28;20448;-69
2020/12/14 12:11:18;;;;;;;5.20;3.00;;;;;;;;;;5093923;28;20946;-70
2020/12/14 12:13:44;;;;;;;4.03;3.50;;;;;;;;;;5093774;28;20813;-71
2020/12/14 12:16:10;;;;;;;6.63;3.50;;;;;;;;;;5092286;28;20417;-71
2020/12/14 12:18:38;;;;;;;7.93;3.20;;;;;;;;;;5092794;28;20578;-70
2020/12/14 12:21:04;;;;;;;7.23;3.80;;;;;;;;;;5083192;28;20541;-75
2020/12/14 12:23:30;;;;;;;5.77;3.07;;;;;;;;;;5092617;28;20826;-76
2020/12/14 12:25:56;;;;;;;4.70;2.87;;;;;;;;;;5094599;28;20454;-72
2020/12/14 12:28:22;;;;;;;6.93;2.50;;;;;;;;;;5094018;28;20511;-72
2020/12/14 12:30:48;;;;;;;3.30;2.40;;;;;;;;;;5094055;28;20827;-73
2020/12/14 12:33:14;;;;;;;6.82;2.40;;;;;;;;;;5093998;28;20430;-69
2020/12/14 12:35:40;;;;;;;6.27;2.13;;;;;;;;;;5093191;28;20887;-72
2020/12/14 12:38:06;;;;;;;3.13;2.00;;;;;;;;;;5094124;28;20462;-71
2020/12/14 12:40:32;;;;;;;4.93;2.20;;;;;;;;;;5093043;28;20523;-70
2020/12/14 12:42:58;;;;;;;3.83;2.80;;;;;;;;;;5093694;28;20432;-70
2020/12/14 12:45:24;;;;;;;10.13;2.40;;;;;;;;;;5076348;28;20435;-69
2020/12/14 12:47:50;;;;;;;3.27;2.10;;;;;;;;;;5094635;28;20400;-72
2020/12/14 12:50:17;;;;;;;5.63;2.50;;;;;;;;;;5093239;28;20788;-69
2020/12/14 12:52:43;;;;;;;3.30;2.53;;;;;;;;;;5093388;28;20887;-70
2020/12/14 12:55:09;;;;;;;2.67;2.10;;;;;;;;;;5092059;28;20538;-69
2020/12/14 12:57:35;;;;;;;5.63;2.70;;;;;;;;;;5095129;28;20408;-70
2020/12/14 13:00:01;;;;;;;5.97;2.20;;;;;;;;;;5093838;28;20424;-70
2020/12/14 13:02:27;;;;;;;14.90;3.50;;;;;;;;;;5075563;28;20520;-72
2020/12/14 13:04:53;;;;;;;4.00;2.70;;;;;;;;;;5092370;28;20496;-70
2020/12/14 13:07:19;;;;;;;4.67;3.50;;;;;;;;;;5094130;28;20805;-70
2020/12/14 13:09:46;;;;;;;6.50;2.90;;;;;;;;;;5094597;28;20507;-71
2020/12/14 13:12:12;;;;;;;2.77;2.20;;;;;;;;;;5094370;28;20487;-70
2020/12/14 13:14:38;;;;;;;4.70;2.87;;;;;;;;;;5087034;28;20425;-70
2020/12/14 13:17:04;;;;;;;4.33;3.17;;;;;;;;;;5085948;28;20473;-71
2020/12/14 13:19:30;;;;;;;3.90;2.70;;;;;;;;;;5093999;28;20436;-70
2020/12/14 13:21:56;;;;;;;11.20;7.20;;;;;;;;;;5093535;28;20447;-71
2020/12/14 13:24:22;;;;;;;7.10;3.90;;;;;;;;;;5093571;28;20936;-70
2020/12/14 13:26:48;;;;;;;4.73;3.27;;;;;;;;;;5094230;28;20413;-70
2020/12/14 13:29:14;;;;;;;6.00;3.10;;;;;;;;;;5090827;28;20424;-71
2020/12/14 13:31:40;;;;;;;8.57;3.40;;;;;;;;;;5094386;28;20423;-70
2020/12/14 13:34:06;;;;;;;7.73;3.37;;;;;;;;;;5092025;28;20613;-70
2020/12/14 13:36:32;;;;;;;5.37;3.20;;;;;;;;;;5093285;28;20915;-71
2020/12/14 13:38:58;;;;;;;6.93;3.60;;;;;;;;;;5088890;28;20432;-72
2020/12/14 13:41:24;;;;;;;7.07;3.70;;;;;;;;;;5092528;28;20436;-71
2020/12/14 13:43:50;;;;;;;5.37;3.77;;;;;;;;;;5082420;28;20432;-71
2020/12/14 13:46:16;;;;;;;4.63;3.37;;;;;;;;;;5093336;28;20465;-71
2020/12/14 13:48:43;;;;;;;4.37;3.00;;;;;;;;;;5085766;28;20431;-70
2020/12/14 13:51:09;;;;;;;6.73;4.27;;;;;;;;;;5095558;28;20447;-70
2020/12/14 13:53:36;;;;;;;5.30;3.23;;;;;;;;;;5090150;28;20555;-71
2020/12/14 13:56:02;;;;;;;6.80;3.90;;;;;;;;;;5092545;28;20420;-70
2020/12/14 13:58:28;;;;;;;4.23;2.70;;;;;;;;;;5090669;28;20400;-71
2020/12/14 14:00:54;;;;;;;5.23;2.90;;;;;;;;;;5091405;28;20956;-70
2020/12/14 14:03:20;;;;;;;5.80;3.73;;;;;;;;;;5092819;28;20427;-71
2020/12/14 14:05:49;;;;;;;6.57;3.70;;;;;;;;;;5090028;28;20434;-70
2020/12/14 14:08:15;;;;;;;8.83;4.37;;;;;;;;;;5093826;28;20511;-71
2020/12/14 14:10:41;;;;;;;4.80;3.87;;;;;;;;;;5092496;28;21025;-71
2020/12/14 14:13:07;;;;;;;5.07;3.13;;;;;;;;;;5092872;28;20550;-71
2020/12/14 14:15:33;;;;;;;4.90;3.93;;;;;;;;;;5090281;28;20972;-71
2020/12/14 14:17:59;;;;;;;8.20;5.17;;;;;;;;;;5093182;28;20474;-71
2020/12/14 14:20:25;;;;;;;6.57;3.80;;;;;;;;;;5090751;28;20453;-70
2020/12/14 14:22:51;;;;;;;5.20;3.30;;;;;;;;;;5093418;28;20770;-70
2020/12/14 14:25:18;;;;;;;4.77;3.50;;;;;;;;;;5092116;28;20997;-70
2020/12/14 14:27:43;;;;;;;7.80;3.80;;;;;;;;;;5093177;28;20761;-70
2020/12/14 14:30:09;;;;;;;6.13;3.30;;;;;;;;;;5092090;28;20434;-70
2020/12/14 14:32:36;;;;;;;5.63;3.57;;;;;;;;;;5092816;28;20460;-69
2020/12/14 14:35:02;;;;;;;4.23;2.97;;;;;;;;;;5091673;28;20466;-69
2020/12/14 14:37:33;;;;;;;6.20;4.27;;;;;;;;;;5087326;28;20407;-70
2020/12/14 14:39:59;;;;;;;4.90;3.00;;;;;;;;;;5091922;28;20815;-69
2020/12/14 14:42:25;;;;;;;9.13;3.50;;;;;;;;;;5088089;28;20473;-69